Terminal Aerodrome Forecast
Issued by NWS

Home | Current Version | Previous Version | Text Only | Print | Product List | Glossary On
Versions: 1 2 3 4 5 6 7 8 9 10 11 12 13 14 15 16 17 18 19 20 21 22 23 24 25 26 27 28 29 30 31 32 33 34 35 36 37 38 39 40 41 42 43 44 45 46 47 48 49 50
000
FTUS41 KCTP 121724
TAFBFD
TAF
KBFD 121724Z 1218/1318 29017G25KT 1 1/2SM -SN OVC015
      TEMPO 1218/1222 4SM -SN OVC025
     FM130000 29012G20KT 5SM -SN OVC050
     FM130300 29014G23KT 1 1/2SM -SN BLSN OVC018
     FM131500 29012G24KT 3SM -SN BR OVC015=

USA.gov is the U.S. government's official web portal to all federal, state and local government web resources and services.